sensor_id;sensor_type;location;lat;lon;timestamp;pressure;altitude;pressure_sealevel;temperature;humidity
4085;BME280;2057;50.858;6.572;2022-12-18T00:00:04;101574.41;;;-5.90;100.00
4085;BME280;2057;50.858;6.572;2022-12-18T00:02:30;101575.78;;;-5.92;100.00
4085;BME280;2057;50.858;6.572;2022-12-18T00:04:58;101579.06;;;-5.99;100.00
4085;BME280;2057;50.858;6.572;2022-12-18T00:07:24;101567.47;;;-6.06;100.00
4085;BME280;2057;50.858;6.572;2022-12-18T00:09:49;101576.19;;;-5.89;100.00
4085;BME280;2057;50.858;6.572;2022-12-18T00:12:14;101575.56;;;-6.07;100.00
4085;BME280;2057;50.858;6.572;2022-12-18T00:14:40;101573.22;;;-6.00;100.00
4085;BME280;2057;50.858;6.572;2022-12-18T00:17:05;101578.81;;;-6.13;100.00
4085;BME280;2057;50.858;6.572;2022-12-18T00:19:31;101582.72;;;-6.03;100.00
4085;BME280;2057;50.858;6.572;2022-12-18T00:21:56;101583.78;;;-6.01;100.00
4085;BME280;2057;50.858;6.572;2022-12-18T00:24:23;101580.94;;;-5.91;100.00
4085;BME280;2057;50.858;6.572;2022-12-18T00:26:48;101586.50;;;-5.86;100.00
4085;BME280;2057;50.858;6.572;2022-12-18T00:29:14;101584.78;;;-6.06;100.00
4085;BME280;2057;50.858;6.572;2022-12-18T00:31:39;101591.78;;;-6.09;100.00
4085;BME280;2057;50.858;6.572;2022-12-18T00:34:05;101588.63;;;-6.08;100.00
4085;BME280;2057;50.858;6.572;2022-12-18T00:36:33;101591.03;;;-6.21;100.00
4085;BME280;2057;50.858;6.572;2022-12-18T00:39:03;101579.63;;;-5.94;100.00
4085;BME280;2057;50.858;6.572;2022-12-18T00:41:29;101583.59;;;-5.89;100.00
4085;BME280;2057;50.858;6.572;2022-12-18T00:44:14;101587.16;;;-6.00;100.00
4085;BME280;2057;50.858;6.572;2022-12-18T00:46:41;101589.28;;;-6.09;100.00
4085;BME280;2057;50.858;6.572;2022-12-18T00:49:07;101590.41;;;-6.07;100.00
4085;BME280;2057;50.858;6.572;2022-12-18T00:51:32;101577.84;;;-6.08;100.00
4085;BME280;2057;50.858;6.572;2022-12-18T00:53:58;101569.53;;;-6.27;100.00
4085;BME280;2057;50.858;6.572;2022-12-18T00:56:24;101569.84;;;-6.32;100.00
4085;BME280;2057;50.858;6.572;2022-12-18T00:58:49;101572.25;;;-6.26;100.00
4085;BME280;2057;50.858;6.572;2022-12-18T01:01:15;101571.19;;;-6.15;100.00
4085;BME280;2057;50.858;6.572;2022-12-18T01:03:40;101581.00;;;-5.96;100.00
4085;BME280;2057;50.858;6.572;2022-12-18T01:06:07;101580.31;;;-5.95;100.00
4085;BME280;2057;50.858;6.572;2022-12-18T01:08:33;101581.00;;;-5.96;100.00
4085;BME280;2057;50.858;6.572;2022-12-18T01:11:00;101580.50;;;-6.07;100.00
4085;BME280;2057;50.858;6.572;2022-12-18T01:13:26;101582.72;;;-6.03;100.00
4085;BME280;2057;50.858;6.572;2022-12-18T01:15:51;101582.09;;;-6.07;100.00
4085;BME280;2057;50.858;6.572;2022-12-18T01:18:16;101575.06;;;-6.04;100.00
4085;BME280;2057;50.858;6.572;2022-12-18T01:20:42;101575.03;;;-6.17;100.00
4085;BME280;2057;50.858;6.572;2022-12-18T01:23:07;101564.53;;;-6.22;100.00
4085;BME280;2057;50.858;6.572;2022-12-18T01:25:33;101571.56;;;-6.25;100.00
4085;BME280;2057;50.858;6.572;2022-12-18T01:28:00;101571.00;;;-6.35;100.00
4085;BME280;2057;50.858;6.572;2022-12-18T01:30:26;101567.44;;;-6.37;100.00
4085;BME280;2057;50.858;6.572;2022-12-18T01:32:52;101575.41;;;-6.46;100.00
4085;BME280;2057;50.858;6.572;2022-12-18T01:35:17;101571.97;;;-6.40;100.00
4085;BME280;2057;50.858;6.572;2022-12-18T01:37:42;101571.97;;;-6.40;100.00
4085;BME280;2057;50.858;6.572;2022-12-18T01:40:08;101584.53;;;-6.39;100.00
4085;BME280;2057;50.858;6.572;2022-12-18T01:42:34;101582.53;;;-6.41;100.00
4085;BME280;2057;50.858;6.572;2022-12-18T01:50:16;101565.22;;;-6.41;100.00
4085;BME280;2057;50.858;6.572;2022-12-18T01:52:47;101559.91;;;-6.44;100.00
4085;BME280;2057;50.858;6.572;2022-12-18T01:55:16;101562.75;;;-6.23;100.00
4085;BME280;2057;50.858;6.572;2022-12-18T01:57:43;101568.75;;;-6.34;100.00
4085;BME280;2057;50.858;6.572;2022-12-18T02:00:12;101560.59;;;-6.46;100.00
4085;BME280;2057;50.858;6.572;2022-12-18T02:02:58;101573.25;;;-6.37;100.00
4085;BME280;2057;50.858;6.572;2022-12-18T02:08:09;101566.16;;;-6.41;100.00
4085;BME280;2057;50.858;6.572;2022-12-18T02:15:59;101575.47;;;-6.51;100.00
4085;BME280;2057;50.858;6.572;2022-12-18T02:18:34;101565.16;;;-6.36;100.00
4085;BME280;2057;50.858;6.572;2022-12-18T02:26:47;101563.38;;;-6.37;100.00
4085;BME280;2057;50.858;6.572;2022-12-18T02:29:22;101550.88;;;-6.25;100.00
4085;BME280;2057;50.858;6.572;2022-12-18T02:31:51;101546.63;;;-6.26;100.00
4085;BME280;2057;50.858;6.572;2022-12-18T02:34:18;101554.94;;;-6.26;100.00
4085;BME280;2057;50.858;6.572;2022-12-18T02:36:45;101553.47;;;-6.18;100.00
4085;BME280;2057;50.858;6.572;2022-12-18T02:39:13;101544.09;;;-6.21;100.00
4085;BME280;2057;50.858;6.572;2022-12-18T02:41:41;101548.41;;;-6.25;100.00
4085;BME280;2057;50.858;6.572;2022-12-18T02:44:11;101547.41;;;-6.33;100.00
4085;BME280;2057;50.858;6.572;2022-12-18T02:46:45;101548.47;;;-6.31;100.00
4085;BME280;2057;50.858;6.572;2022-12-18T02:51:56;101553.38;;;-6.44;100.00
4085;BME280;2057;50.858;6.572;2022-12-18T02:57:04;101560.16;;;-6.30;100.00
4085;BME280;2057;50.858;6.572;2022-12-18T02:59:40;101543.06;;;-6.28;100.00
4085;BME280;2057;50.858;6.572;2022-12-18T03:02:23;101551.19;;;-6.29;100.00
4085;BME280;2057;50.858;6.572;2022-12-18T03:04:55;101547.16;;;-6.16;100.00
4085;BME280;2057;50.858;6.572;2022-12-18T03:07:33;101546.47;;;-6.15;100.00
4085;BME280;2057;50.858;6.572;2022-12-18T03:10:00;101549.22;;;-6.19;100.00
4085;BME280;2057;50.858;6.572;2022-12-18T03:12:36;101549.78;;;-6.27;100.00
4085;BME280;2057;50.858;6.572;2022-12-18T03:15:10;101548.41;;;-6.25;100.00
4085;BME280;2057;50.858;6.572;2022-12-18T03:17:41;101542.59;;;-6.26;100.00
4085;BME280;2057;50.858;6.572;2022-12-18T03:20:17;101542.97;;;-6.23;100.00
4085;BME280;2057;50.858;6.572;2022-12-18T03:22:44;101530.00;;;-6.27;100.00
4085;BME280;2057;50.858;6.572;2022-12-18T03:25:13;101523.38;;;-6.34;100.00
4085;BME280;2057;50.858;6.572;2022-12-18T03:27:43;101518.91;;;-6.37;100.00
4085;BME280;2057;50.858;6.572;2022-12-18T03:30:14;101510.81;;;-6.36;100.00
4085;BME280;2057;50.858;6.572;2022-12-18T03:33:02;101522.47;;;-6.35;100.00
4085;BME280;2057;50.858;6.572;2022-12-18T03:35:33;101521.53;;;-6.29;100.00
4085;BME280;2057;50.858;6.572;2022-12-18T03:38:00;101524.28;;;-6.34;100.00
4085;BME280;2057;50.858;6.572;2022-12-18T03:40:31;101528.34;;;-6.34;100.00
4085;BME280;2057;50.858;6.572;2022-12-18T03:43:09;101516.19;;;-6.33;100.00
4085;BME280;2057;50.858;6.572;2022-12-18T03:45:41;101513.25;;;-6.17;100.00
4085;BME280;2057;50.858;6.572;2022-12-18T03:48:17;101513.31;;;-6.23;100.00
4085;BME280;2057;50.858;6.572;2022-12-18T03:50:49;101512.88;;;-6.20;100.00
4085;BME280;2057;50.858;6.572;2022-12-18T08:30:19;101418.38;;;-5.86;100.00
4085;BME280;2057;50.858;6.572;2022-12-18T08:43:05;101433.78;;;-5.69;100.00
4085;BME280;2057;50.858;6.572;2022-12-18T08:45:49;101429.81;;;-5.61;100.00
4085;BME280;2057;50.858;6.572;2022-12-18T08:48:14;101432.88;;;-5.56;100.00
4085;BME280;2057;50.858;6.572;2022-12-18T08:50:40;101428.31;;;-5.53;100.00
4085;BME280;2057;50.858;6.572;2022-12-18T08:55:41;101427.03;;;-5.44;100.00
4085;BME280;2057;50.858;6.572;2022-12-18T08:58:06;101422.44;;;-5.41;100.00
4085;BME280;2057;50.858;6.572;2022-12-18T09:00:32;101423.53;;;-5.26;100.00
4085;BME280;2057;50.858;6.572;2022-12-18T09:05:32;101415.59;;;-5.23;100.00
4085;BME280;2057;50.858;6.572;2022-12-18T09:07:57;101423.00;;;-5.23;100.00
4085;BME280;2057;50.858;6.572;2022-12-18T09:10:23;101427.66;;;-5.19;100.00
4085;BME280;2057;50.858;6.572;2022-12-18T09:15:23;101421.00;;;-5.13;100.00
4085;BME280;2057;50.858;6.572;2022-12-18T09:17:49;101414.75;;;-5.04;100.00
4085;BME280;2057;50.858;6.572;2022-12-18T10:02:13;101342.97;;;-3.59;100.00
4085;BME280;2057;50.858;6.572;2022-12-18T10:04:39;101335.69;;;-3.58;100.00
4085;BME280;2057;50.858;6.572;2022-12-18T10:07:16;101347.09;;;-3.45;100.00
4085;BME280;2057;50.858;6.572;2022-12-18T10:14:57;101339.34;;;-3.27;100.00
4085;BME280;2057;50.858;6.572;2022-12-18T10:20:56;101340.75;;;-3.15;100.00
4085;BME280;2057;50.858;6.572;2022-12-18T10:26:10;101330.66;;;-2.94;100.00
4085;BME280;2057;50.858;6.572;2022-12-18T10:28:37;101333.69;;;-2.90;100.00
4085;BME280;2057;50.858;6.572;2022-12-18T10:31:24;101329.63;;;-2.89;100.00
4085;BME280;2057;50.858;6.572;2022-12-18T10:33:50;101331.22;;;-2.82;100.00
4085;BME280;2057;50.858;6.572;2022-12-18T10:36:16;101324.47;;;-2.84;100.00
4085;BME280;2057;50.858;6.572;2022-12-18T10:38:41;101325.19;;;-2.77;100.00
4085;BME280;2057;50.858;6.572;2022-12-18T10:43:46;101321.97;;;-2.69;99.94
4085;BME280;2057;50.858;6.572;2022-12-18T10:46:16;101308.84;;;-2.61;99.94
4085;BME280;2057;50.858;6.572;2022-12-18T10:48:50;101310.06;;;-2.57;99.19
4085;BME280;2057;50.858;6.572;2022-12-18T10:51:34;101313.09;;;-2.53;98.84
4085;BME280;2057;50.858;6.572;2022-12-18T10:56:28;101315.53;;;-2.38;98.49
4085;BME280;2057;50.858;6.572;2022-12-18T10:59:05;101326.91;;;-2.33;97.99
4085;BME280;2057;50.858;6.572;2022-12-18T11:01:51;101325.50;;;-2.31;98.00
4085;BME280;2057;50.858;6.572;2022-12-18T11:04:31;101312.84;;;-2.25;97.48
4085;BME280;2057;50.858;6.572;2022-12-18T11:07:04;101309.34;;;-2.34;97.81
4085;BME280;2057;50.858;6.572;2022-12-18T11:09:36;101313.59;;;-2.26;97.73
4085;BME280;2057;50.858;6.572;2022-12-18T11:12:04;101312.34;;;-2.23;97.94
4085;BME280;2057;50.858;6.572;2022-12-18T11:14:52;101316.72;;;-2.13;97.85
4085;BME280;2057;50.858;6.572;2022-12-18T11:19:57;101315.13;;;-2.12;97.46
4085;BME280;2057;50.858;6.572;2022-12-18T11:22:27;101305.16;;;-2.05;97.81
4085;BME280;2057;50.858;6.572;2022-12-18T11:24:57;101288.47;;;-2.06;97.73
4085;BME280;2057;50.858;6.572;2022-12-18T11:27:24;101285.47;;;-2.11;98.07
4085;BME280;2057;50.858;6.572;2022-12-18T11:29:50;101287.56;;;-2.07;98.08
4085;BME280;2057;50.858;6.572;2022-12-18T11:32:29;101286.63;;;-1.93;98.05
4085;BME280;2057;50.858;6.572;2022-12-18T11:35:03;101277.06;;;-1.97;98.42
4085;BME280;2057;50.858;6.572;2022-12-18T11:37:31;101274.38;;;-1.91;98.45
4085;BME280;2057;50.858;6.572;2022-12-18T11:40:11;101272.41;;;-1.86;97.72
4085;BME280;2057;50.858;6.572;2022-12-18T11:42:44;101267.75;;;-1.83;97.36
4085;BME280;2057;50.858;6.572;2022-12-18T11:47:46;101252.59;;;-1.78;97.57
4085;BME280;2057;50.858;6.572;2022-12-18T11:50:21;101248.84;;;-1.74;96.58
4085;BME280;2057;50.858;6.572;2022-12-18T11:52:48;101241.22;;;-1.76;96.32
4085;BME280;2057;50.858;6.572;2022-12-18T11:55:28;101236.25;;;-1.76;96.16
4085;BME280;2057;50.858;6.572;2022-12-18T12:00:50;101229.28;;;-1.71;97.36
4085;BME280;2057;50.858;6.572;2022-12-18T12:09:19;101213.19;;;-1.59;96.01
4085;BME280;2057;50.858;6.572;2022-12-18T12:14:36;101225.13;;;-1.63;95.48
4085;BME280;2057;50.858;6.572;2022-12-18T12:17:22;101232.53;;;-1.56;94.66
4085;BME280;2057;50.858;6.572;2022-12-18T12:20:13;101228.97;;;-1.51;93.77
4085;BME280;2057;50.858;6.572;2022-12-18T12:25:37;101225.63;;;-1.59;94.09
4085;BME280;2057;50.858;6.572;2022-12-18T12:31:47;101220.88;;;-1.41;93.08
4085;BME280;2057;50.858;6.572;2022-12-18T12:34:22;101214.03;;;-1.51;93.53
4085;BME280;2057;50.858;6.572;2022-12-18T12:36:56;101217.78;;;-1.54;93.57
4085;BME280;2057;50.858;6.572;2022-12-18T12:39:32;101216.31;;;-1.45;93.85
4085;BME280;2057;50.858;6.572;2022-12-18T12:42:02;101218.25;;;-1.43;93.59
4085;BME280;2057;50.858;6.572;2022-12-18T12:44:52;101216.81;;;-1.40;92.94
4085;BME280;2057;50.858;6.572;2022-12-18T12:47:25;101221.44;;;-1.44;93.25
4085;BME280;2057;50.858;6.572;2022-12-18T12:49:52;101224.78;;;-1.36;93.34
4085;BME280;2057;50.858;6.572;2022-12-18T12:52:40;101222.09;;;-1.37;93.02
4085;BME280;2057;50.858;6.572;2022-12-18T12:55:16;101215.91;;;-1.41;91.82
4085;BME280;2057;50.858;6.572;2022-12-18T12:57:51;101202.66;;;-1.49;92.08
4085;BME280;2057;50.858;6.572;2022-12-18T13:00:22;101194.13;;;-1.51;92.76
4085;BME280;2057;50.858;6.572;2022-12-18T13:07:58;101169.00;;;-1.45;93.85
4085;BME280;2057;50.858;6.572;2022-12-18T13:10:26;101163.94;;;-1.38;94.71
4085;BME280;2057;50.858;6.572;2022-12-18T13:18:14;101157.19;;;-1.62;94.19
4085;BME280;2057;50.858;6.572;2022-12-18T13:20:43;101157.03;;;-1.64;94.23
4085;BME280;2057;50.858;6.572;2022-12-18T13:25:53;101159.47;;;-1.56;93.43
4085;BME280;2057;50.858;6.572;2022-12-18T13:34:17;101143.09;;;-1.54;93.90
4085;BME280;2057;50.858;6.572;2022-12-18T13:36:43;101144.75;;;-1.62;94.25
4085;BME280;2057;50.858;6.572;2022-12-18T13:41:45;101147.44;;;-1.61;93.44
4085;BME280;2057;50.858;6.572;2022-12-18T13:46:50;101137.69;;;-1.66;92.50
4085;BME280;2057;50.858;6.572;2022-12-18T13:49:24;101135.25;;;-1.74;92.20
4085;BME280;2057;50.858;6.572;2022-12-18T13:51:53;101131.72;;;-1.76;92.67
4085;BME280;2057;50.858;6.572;2022-12-18T13:54:38;101141.47;;;-1.70;92.28
4085;BME280;2057;50.858;6.572;2022-12-18T13:57:05;101142.53;;;-1.75;92.36
4085;BME280;2057;50.858;6.572;2022-12-18T13:59:50;101128.72;;;-1.80;92.97
4085;BME280;2057;50.858;6.572;2022-12-18T14:02:17;101111.13;;;-1.82;92.62
4085;BME280;2057;50.858;6.572;2022-12-18T14:04:46;101115.22;;;-1.82;92.59
4085;BME280;2057;50.858;6.572;2022-12-18T14:07:14;101120.25;;;-1.90;92.44
4085;BME280;2057;50.858;6.572;2022-12-18T14:09:43;101115.50;;;-1.95;92.74
4085;BME280;2057;50.858;6.572;2022-12-18T14:12:16;101139.16;;;-1.99;92.93
4085;BME280;2057;50.858;6.572;2022-12-18T14:15:02;101118.75;;;-2.03;93.28
4085;BME280;2057;50.858;6.572;2022-12-18T14:17:28;101111.13;;;-2.05;93.31
4085;BME280;2057;50.858;6.572;2022-12-18T14:19:53;101108.09;;;-2.02;93.20
4085;BME280;2057;50.858;6.572;2022-12-18T14:22:24;101120.91;;;-2.07;93.12
4085;BME280;2057;50.858;6.572;2022-12-18T14:27:37;101110.84;;;-2.15;93.78
4085;BME280;2057;50.858;6.572;2022-12-18T14:30:23;101106.56;;;-2.16;93.64
4085;BME280;2057;50.858;6.572;2022-12-18T14:35:35;101090.28;;;-2.22;94.07
4085;BME280;2057;50.858;6.572;2022-12-18T14:40:43;101080.66;;;-2.18;94.04
4085;BME280;2057;50.858;6.572;2022-12-18T14:43:10;101077.50;;;-2.25;94.31
4085;BME280;2057;50.858;6.572;2022-12-18T14:45:41;101082.06;;;-2.21;94.20
4085;BME280;2057;50.858;6.572;2022-12-18T14:48:35;101082.75;;;-2.14;94.02
4085;BME280;2057;50.858;6.572;2022-12-18T14:51:03;101087.22;;;-2.19;93.88
4085;BME280;2057;50.858;6.572;2022-12-18T15:01:25;101080.75;;;-2.33;94.65
4085;BME280;2057;50.858;6.572;2022-12-18T15:03:52;101088.72;;;-2.28;94.73
4085;BME280;2057;50.858;6.572;2022-12-18T15:08:53;101097.81;;;-2.36;94.81
4085;BME280;2057;50.858;6.572;2022-12-18T15:11:45;101096.38;;;-2.34;94.70
4085;BME280;2057;50.858;6.572;2022-12-18T15:16:54;101095.00;;;-2.46;95.23
4085;BME280;2057;50.858;6.572;2022-12-18T15:19:38;101095.00;;;-2.46;95.43
4085;BME280;2057;50.858;6.572;2022-12-18T15:22:04;101098.25;;;-2.55;95.55
4085;BME280;2057;50.858;6.572;2022-12-18T15:24:31;101084.41;;;-2.53;95.63
4085;BME280;2057;50.858;6.572;2022-12-18T15:26:58;101075.00;;;-2.55;95.70
4085;BME280;2057;50.858;6.572;2022-12-18T15:29:23;101073.06;;;-2.58;95.87
4085;BME280;2057;50.858;6.572;2022-12-18T15:32:19;101071.88;;;-2.69;96.53
4085;BME280;2057;50.858;6.572;2022-12-18T15:34:48;101062.28;;;-2.65;96.57
4085;BME280;2057;50.858;6.572;2022-12-18T15:37:13;101075.25;;;-2.68;96.65
4085;BME280;2057;50.858;6.572;2022-12-18T15:39:38;101079.81;;;-2.64;96.34
4085;BME280;2057;50.858;6.572;2022-12-18T15:42:09;101093.75;;;-2.73;96.67
4085;BME280;2057;50.858;6.572;2022-12-18T15:44:53;101101.00;;;-2.75;97.24
4085;BME280;2057;50.858;6.572;2022-12-18T15:47:18;101111.31;;;-2.72;97.23
4085;BME280;2057;50.858;6.572;2022-12-18T15:49:44;101100.25;;;-2.66;97.16
4085;BME280;2057;50.858;6.572;2022-12-18T15:52:12;101102.22;;;-2.71;97.22
4085;BME280;2057;50.858;6.572;2022-12-18T15:54:38;101096.59;;;-2.77;97.53
4085;BME280;2057;50.858;6.572;2022-12-18T15:57:22;101096.22;;;-2.73;98.30
4085;BME280;2057;50.858;6.572;2022-12-18T15:59:48;101079.34;;;-2.76;97.92
4085;BME280;2057;50.858;6.572;2022-12-18T16:02:16;101083.28;;;-2.78;98.30
4085;BME280;2057;50.858;6.572;2022-12-18T16:04:42;101069.78;;;-2.73;98.18
4085;BME280;2057;50.858;6.572;2022-12-18T16:07:10;101079.19;;;-2.77;98.17
4085;BME280;2057;50.858;6.572;2022-12-18T16:09:36;101076.16;;;-2.75;98.16
4085;BME280;2057;50.858;6.572;2022-12-18T16:12:01;101071.91;;;-2.76;98.37
4085;BME280;2057;50.858;6.572;2022-12-18T16:14:29;101072.41;;;-2.71;98.24
4085;BME280;2057;50.858;6.572;2022-12-18T16:16:57;101081.28;;;-2.66;97.93
4085;BME280;2057;50.858;6.572;2022-12-18T16:19:24;101078.41;;;-2.62;97.74
4085;BME280;2057;50.858;6.572;2022-12-18T16:21:51;101073.13;;;-2.65;98.20
4085;BME280;2057;50.858;6.572;2022-12-18T16:24:37;101073.47;;;-2.69;98.39
4085;BME280;2057;50.858;6.572;2022-12-18T16:27:02;101066.34;;;-2.59;98.05
4085;BME280;2057;50.858;6.572;2022-12-18T16:29:28;101070.78;;;-2.63;98.23
4085;BME280;2057;50.858;6.572;2022-12-18T16:31:56;101075.41;;;-2.66;98.51
4085;BME280;2057;50.858;6.572;2022-12-18T16:34:30;101075.41;;;-2.66;98.52
4085;BME280;2057;50.858;6.572;2022-12-18T16:36:58;101073.31;;;-2.71;98.95
4085;BME280;2057;50.858;6.572;2022-12-18T16:39:24;101071.53;;;-2.72;99.06
4085;BME280;2057;50.858;6.572;2022-12-18T16:41:50;101081.47;;;-2.72;98.99
4085;BME280;2057;50.858;6.572;2022-12-18T16:44:15;101076.34;;;-2.73;99.19
4085;BME280;2057;50.858;6.572;2022-12-18T16:46:41;101076.00;;;-2.76;99.33
4085;BME280;2057;50.858;6.572;2022-12-18T16:49:14;101070.34;;;-2.82;99.67
4085;BME280;2057;50.858;6.572;2022-12-18T16:51:40;101061.25;;;-2.75;99.38
4085;BME280;2057;50.858;6.572;2022-12-18T16:54:06;101069.06;;;-2.72;99.37
4085;BME280;2057;50.858;6.572;2022-12-18T16:56:31;101066.06;;;-2.76;99.36
4085;BME280;2057;50.858;6.572;2022-12-18T16:58:58;101064.13;;;-2.79;99.99
4085;BME280;2057;50.858;6.572;2022-12-18T17:01:25;101075.28;;;-2.75;99.77
4085;BME280;2057;50.858;6.572;2022-12-18T17:03:59;101061.44;;;-2.73;100.00
4085;BME280;2057;50.858;6.572;2022-12-18T17:06:26;101075.97;;;-2.69;100.00
4085;BME280;2057;50.858;6.572;2022-12-18T17:08:59;101067.44;;;-2.71;99.94
4085;BME280;2057;50.858;6.572;2022-12-18T17:11:27;101054.47;;;-2.69;100.00
4085;BME280;2057;50.858;6.572;2022-12-18T17:13:53;101049.34;;;-2.70;99.99
4085;BME280;2057;50.858;6.572;2022-12-18T17:16:19;101054.50;;;-2.76;100.00
4085;BME280;2057;50.858;6.572;2022-12-18T17:18:44;101046.69;;;-2.72;100.00
4085;BME280;2057;50.858;6.572;2022-12-18T17:21:10;101044.22;;;-2.72;100.00
4085;BME280;2057;50.858;6.572;2022-12-18T17:23:37;101044.75;;;-2.74;100.00
4085;BME280;2057;50.858;6.572;2022-12-18T17:26:03;101049.19;;;-2.72;100.00
4085;BME280;2057;50.858;6.572;2022-12-18T17:28:31;101058.91;;;-2.66;100.00
4085;BME280;2057;50.858;6.572;2022-12-18T17:30:56;101048.97;;;-2.66;100.00
4085;BME280;2057;50.858;6.572;2022-12-18T17:33:23;101050.06;;;-2.71;100.00
4085;BME280;2057;50.858;6.572;2022-12-18T17:35:48;101058.22;;;-2.72;100.00
4085;BME280;2057;50.858;6.572;2022-12-18T17:38:14;101045.78;;;-2.65;100.00
4085;BME280;2057;50.858;6.572;2022-12-18T17:40:39;101049.66;;;-2.60;100.00
4085;BME280;2057;50.858;6.572;2022-12-18T17:43:06;101055.38;;;-2.68;100.00
4085;BME280;2057;50.858;6.572;2022-12-18T17:45:36;101053.56;;;-2.62;100.00
4085;BME280;2057;50.858;6.572;2022-12-18T17:48:03;101047.50;;;-2.57;100.00
4085;BME280;2057;50.858;6.572;2022-12-18T17:50:29;101054.78;;;-2.58;100.00
4085;BME280;2057;50.858;6.572;2022-12-18T17:52:55;101058.72;;;-2.60;100.00
4085;BME280;2057;50.858;6.572;2022-12-18T17:55:21;101065.22;;;-2.54;100.00
4085;BME280;2057;50.858;6.572;2022-12-18T17:57:47;101066.63;;;-2.48;100.00
4085;BME280;2057;50.858;6.572;2022-12-18T18:00:13;101067.16;;;-2.51;100.00
4085;BME280;2057;50.858;6.572;2022-12-18T18:02:38;101068.78;;;-2.52;100.00
4085;BME280;2057;50.858;6.572;2022-12-18T18:05:04;101070.16;;;-2.46;100.00
4085;BME280;2057;50.858;6.572;2022-12-18T18:07:29;101061.97;;;-2.45;100.00
4085;BME280;2057;50.858;6.572;2022-12-18T18:09:54;101061.09;;;-2.46;100.00
4085;BME280;2057;50.858;6.572;2022-12-18T18:12:20;101064.66;;;-2.51;100.00
4085;BME280;2057;50.858;6.572;2022-12-18T18:15:04;101055.25;;;-2.46;100.00
4085;BME280;2057;50.858;6.572;2022-12-18T18:17:29;101055.06;;;-2.48;100.00
4085;BME280;2057;50.858;6.572;2022-12-18T18:19:55;101050.00;;;-2.57;100.00
4085;BME280;2057;50.858;6.572;2022-12-18T18:22:20;101043.75;;;-2.53;100.00
4085;BME280;2057;50.858;6.572;2022-12-18T18:24:45;101053.50;;;-2.47;100.00
4085;BME280;2057;50.858;6.572;2022-12-18T18:27:11;101049.59;;;-2.53;100.00
4085;BME280;2057;50.858;6.572;2022-12-18T18:29:36;101054.78;;;-2.58;100.00
4085;BME280;2057;50.858;6.572;2022-12-18T18:32:02;101049.94;;;-2.49;100.00
4085;BME280;2057;50.858;6.572;2022-12-18T18:34:28;101050.81;;;-2.49;100.00
4085;BME280;2057;50.858;6.572;2022-12-18T18:36:54;101049.41;;;-2.47;100.00
4085;BME280;2057;50.858;6.572;2022-12-18T18:39:20;101056.69;;;-2.48;100.00
4085;BME280;2057;50.858;6.572;2022-12-18T18:41:46;101048.53;;;-2.47;100.00
4085;BME280;2057;50.858;6.572;2022-12-18T18:44:12;101054.22;;;-2.48;100.00
4085;BME280;2057;50.858;6.572;2022-12-18T18:46:37;101048.88;;;-2.52;100.00
4085;BME280;2057;50.858;6.572;2022-12-18T18:49:03;101040.50;;;-2.45;100.00
4085;BME280;2057;50.858;6.572;2022-12-18T18:51:29;101032.88;;;-2.46;100.00
4085;BME280;2057;50.858;6.572;2022-12-18T18:53:55;101044.63;;;-2.53;100.00
4085;BME280;2057;50.858;6.572;2022-12-18T18:56:24;101041.28;;;-2.53;100.00
4085;BME280;2057;50.858;6.572;2022-12-18T18:58:53;101038.28;;;-2.58;100.00
4085;BME280;2057;50.858;6.572;2022-12-18T19:01:20;101038.44;;;-2.56;100.00
4085;BME280;2057;50.858;6.572;2022-12-18T19:03:46;101044.97;;;-2.49;100.00
4085;BME280;2057;50.858;6.572;2022-12-18T19:06:21;101040.69;;;-2.20;100.00
4085;BME280;2057;50.858;6.572;2022-12-18T19:08:48;101041.41;;;-2.21;100.00
4085;BME280;2057;50.858;6.572;2022-12-18T19:11:14;101040.19;;;-2.25;100.00
4085;BME280;2057;50.858;6.572;2022-12-18T19:13:59;101037.50;;;-2.19;100.00
4085;BME280;2057;50.858;6.572;2022-12-18T19:16:26;101039.88;;;-2.05;100.00
4085;BME280;2057;50.858;6.572;2022-12-18T19:18:51;101032.63;;;-2.10;100.00
4085;BME280;2057;50.858;6.572;2022-12-18T19:21:19;101028.31;;;-2.04;100.00
4085;BME280;2057;50.858;6.572;2022-12-18T19:23:44;101024.06;;;-2.05;100.00
4085;BME280;2057;50.858;6.572;2022-12-18T19:26:11;101025.38;;;-1.93;100.00
4085;BME280;2057;50.858;6.572;2022-12-18T19:36:26;101038.22;;;-1.97;100.00
4085;BME280;2057;50.858;6.572;2022-12-18T20:17:40;101044.56;;;-1.92;100.00
4085;BME280;2057;50.858;6.572;2022-12-18T20:20:05;101041.34;;;-1.91;100.00
4085;BME280;2057;50.858;6.572;2022-12-18T20:22:31;101043.06;;;-1.82;100.00
4085;BME280;2057;50.858;6.572;2022-12-18T20:27:33;101056.63;;;-1.87;100.00
4085;BME280;2057;50.858;6.572;2022-12-18T20:40:19;101065.13;;;-1.85;100.00
4085;BME280;2057;50.858;6.572;2022-12-18T20:42:44;101063.84;;;-1.82;100.00
4085;BME280;2057;50.858;6.572;2022-12-18T20:45:10;101055.16;;;-1.85;100.00
4085;BME280;2057;50.858;6.572;2022-12-18T20:50:10;101058.47;;;-1.78;100.00
4085;BME280;2057;50.858;6.572;2022-12-18T20:52:36;101066.50;;;-1.80;100.00
4085;BME280;2057;50.858;6.572;2022-12-18T20:55:01;101079.22;;;-1.93;100.00
4085;BME280;2057;50.858;6.572;2022-12-18T20:57:26;101071.56;;;-1.87;100.00
4085;BME280;2057;50.858;6.572;2022-12-18T20:59:52;101068.34;;;-1.86;100.00
4085;BME280;2057;50.858;6.572;2022-12-18T21:04:52;101067.94;;;-1.82;100.00
4085;BME280;2057;50.858;6.572;2022-12-18T21:07:18;101061.91;;;-1.84;100.00
4085;BME280;2057;50.858;6.572;2022-12-18T21:14:51;101061.34;;;-1.82;100.00
4085;BME280;2057;50.858;6.572;2022-12-18T21:17:17;101058.16;;;-1.81;100.00
4085;BME280;2057;50.858;6.572;2022-12-18T21:19:42;101065.38;;;-1.75;100.00
4085;BME280;2057;50.858;6.572;2022-12-18T21:22:10;101062.25;;;-1.81;100.00
4085;BME280;2057;50.858;6.572;2022-12-18T21:24:36;101060.75;;;-1.72;100.00
4085;BME280;2057;50.858;6.572;2022-12-18T21:27:02;101057.63;;;-1.78;100.00
4085;BME280;2057;50.858;6.572;2022-12-18T21:29:27;101058.31;;;-1.79;100.00
4085;BME280;2057;50.858;6.572;2022-12-18T21:31:53;101063.81;;;-1.75;100.00
4085;BME280;2057;50.858;6.572;2022-12-18T21:34:24;101063.09;;;-1.74;100.00
4085;BME280;2057;50.858;6.572;2022-12-18T21:36:50;101060.59;;;-1.74;100.00
4085;BME280;2057;50.858;6.572;2022-12-18T21:39:16;101054.56;;;-1.76;100.00
4085;BME280;2057;50.858;6.572;2022-12-18T21:41:42;101053.50;;;-1.78;100.00
4085;BME280;2057;50.858;6.572;2022-12-18T21:44:26;101046.53;;;-1.73;100.00
4085;BME280;2057;50.858;6.572;2022-12-18T21:46:52;101041.41;;;-1.75;100.00
4085;BME280;2057;50.858;6.572;2022-12-18T21:49:18;101036.44;;;-1.59;100.00
4085;BME280;2057;50.858;6.572;2022-12-18T21:51:47;101022.22;;;-1.60;100.00